Time;durP1;ratioP1;P1;durP2;ratioP2;P2;SDS_P1;SDS_P2;PMS_P1;PMS_P2;Temp;Humidity;BMP_temperature;BMP_pressure;BME280_temperature;BME280_humidity;BME280_pressure;Samples;Min_cycle;Max_cycle;Signal;HPM_P1;HPM_P2
2022/04/28 00:01:29;;;;;;;12.33;8.77;;;;;;;;;;5031160;28;20686;-71
2022/04/28 00:03:58;;;;;;;11.40;8.77;;;;;;;;;;5031950;28;20296;-71
2022/04/28 00:06:26;;;;;;;10.13;8.27;;;;;;;;;;5032231;28;20211;-72
2022/04/28 00:08:55;;;;;;;12.83;8.87;;;;;;;;;;5032979;28;20208;-71
2022/04/28 00:11:24;;;;;;;12.53;8.70;;;;;;;;;;5028247;28;20559;-71
2022/04/28 00:13:53;;;;;;;12.73;8.30;;;;;;;;;;5031772;28;20199;-72
2022/04/28 00:16:21;;;;;;;11.13;8.20;;;;;;;;;;5029701;28;20285;-72
2022/04/28 00:18:50;;;;;;;11.20;8.43;;;;;;;;;;5031663;28;20234;-71
2022/04/28 00:21:18;;;;;;;13.07;8.60;;;;;;;;;;5031420;28;20206;-73
2022/04/28 00:23:47;;;;;;;12.10;7.93;;;;;;;;;;5031719;28;20211;-71
2022/04/28 00:26:16;;;;;;;11.10;8.47;;;;;;;;;;5032326;28;20272;-74
2022/04/28 00:28:45;;;;;;;10.33;8.43;;;;;;;;;;5035588;28;20227;-73
2022/04/28 00:31:14;;;;;;;11.70;8.53;;;;;;;;;;5035128;28;20658;-72
2022/04/28 00:33:42;;;;;;;9.47;8.33;;;;;;;;;;5035889;28;20265;-71
2022/04/28 00:36:11;;;;;;;12.10;8.77;;;;;;;;;;5034152;28;20277;-72
2022/04/28 00:38:39;;;;;;;11.83;8.93;;;;;;;;;;5035405;28;20230;-72
2022/04/28 00:41:08;;;;;;;11.90;8.33;;;;;;;;;;5034320;28;20203;-72
2022/04/28 00:43:49;;;;;;;13.23;8.63;;;;;;;;;;5035438;28;20206;-72
2022/04/28 00:46:18;;;;;;;11.87;8.53;;;;;;;;;;5035280;28;20210;-72
2022/04/28 00:51:34;;;;;;;14.37;9.60;;;;;;;;;;5034880;28;20222;-73
2022/04/28 00:54:03;;;;;;;10.57;9.23;;;;;;;;;;5035410;28;20202;-72
2022/04/28 00:56:32;;;;;;;12.47;8.67;;;;;;;;;;5034900;28;20223;-72
2022/04/28 00:59:02;;;;;;;13.97;8.83;;;;;;;;;;5034829;28;20272;-71
2022/04/28 01:01:31;;;;;;;13.93;9.00;;;;;;;;;;5035267;28;20685;-72
2022/04/28 01:04:00;;;;;;;12.37;9.53;;;;;;;;;;5034818;28;20207;-73
2022/04/28 01:06:28;;;;;;;12.80;9.40;;;;;;;;;;5035607;28;20199;-71
2022/04/28 01:08:58;;;;;;;11.43;9.03;;;;;;;;;;5032779;28;20201;-73
2022/04/28 01:11:27;;;;;;;12.27;8.93;;;;;;;;;;5016147;28;20215;-72
2022/04/28 01:13:56;;;;;;;14.50;10.17;;;;;;;;;;5031407;28;20267;-72
2022/04/28 01:16:25;;;;;;;9.80;8.80;;;;;;;;;;5034549;28;20619;-73
2022/04/28 01:18:54;;;;;;;12.50;9.73;;;;;;;;;;5034779;28;20220;-72
2022/04/28 01:21:23;;;;;;;13.03;9.60;;;;;;;;;;5033929;28;20208;-71
2022/04/28 01:23:52;;;;;;;12.67;10.33;;;;;;;;;;5033361;28;20269;-73
2022/04/28 01:26:21;;;;;;;13.20;10.33;;;;;;;;;;5034515;28;20206;-71
2022/04/28 01:28:49;;;;;;;15.43;10.33;;;;;;;;;;5034674;28;20280;-73
2022/04/28 01:31:18;;;;;;;13.80;10.63;;;;;;;;;;5033273;28;20201;-71
2022/04/28 01:33:46;;;;;;;12.03;10.27;;;;;;;;;;5033422;28;20311;-71
2022/04/28 01:36:15;;;;;;;15.83;11.43;;;;;;;;;;5032256;28;20228;-71
2022/04/28 01:38:44;;;;;;;15.10;10.67;;;;;;;;;;5033072;28;20254;-72
2022/04/28 01:41:13;;;;;;;16.33;11.00;;;;;;;;;;5033972;28;20627;-70
2022/04/28 01:43:41;;;;;;;15.17;10.77;;;;;;;;;;5034789;28;20204;-71
2022/04/28 01:46:10;;;;;;;14.33;11.23;;;;;;;;;;5034402;28;20209;-71
2022/04/28 01:48:38;;;;;;;13.93;11.67;;;;;;;;;;5024373;28;20623;-71
2022/04/28 01:56:54;;;;;;;14.13;10.97;;;;;;;;;;4984783;28;20736;-71
2022/04/28 02:02:45;;;;;;;13.80;9.63;;;;;;;;;;4992236;28;20197;-72
2022/04/28 02:05:14;;;;;;;14.47;10.77;;;;;;;;;;4992693;28;20237;-71
2022/04/28 02:07:43;;;;;;;15.63;11.13;;;;;;;;;;4991568;28;20221;-72
2022/04/28 02:10:13;;;;;;;18.60;11.20;;;;;;;;;;4991105;28;20202;-73
2022/04/28 02:12:41;;;;;;;14.43;11.10;;;;;;;;;;4992525;28;20310;-72
2022/04/28 02:15:10;;;;;;;14.20;10.50;;;;;;;;;;4992260;28;20617;-72
2022/04/28 02:17:39;;;;;;;12.33;9.87;;;;;;;;;;4991475;28;20229;-72
2022/04/28 02:20:09;;;;;;;12.70;10.10;;;;;;;;;;4990189;28;20259;-71
2022/04/28 02:22:37;;;;;;;14.40;10.13;;;;;;;;;;4991915;28;20300;-73
2022/04/28 02:25:06;;;;;;;13.10;9.87;;;;;;;;;;5014109;28;20204;-71
2022/04/28 02:27:39;;;;;;;12.13;10.03;;;;;;;;;;5034075;28;20270;-72
2022/04/28 02:30:08;;;;;;;12.60;10.90;;;;;;;;;;5032895;28;20227;-73
2022/04/28 02:33:11;;;;;;;15.73;10.50;;;;;;;;;;5017705;28;20208;-72
2022/04/28 02:35:40;;;;;;;14.33;10.27;;;;;;;;;;5014181;28;20206;-72
2022/04/28 02:38:08;;;;;;;14.03;10.27;;;;;;;;;;5023155;28;20235;-72
2022/04/28 02:40:37;;;;;;;13.33;9.97;;;;;;;;;;5032616;28;20212;-72
2022/04/28 02:43:07;;;;;;;15.67;10.83;;;;;;;;;;5031679;28;20201;-71
2022/04/28 02:45:35;;;;;;;15.33;10.43;;;;;;;;;;5032310;28;20647;-72
2022/04/28 02:48:04;;;;;;;12.53;9.83;;;;;;;;;;5032123;28;20239;-73
2022/04/28 02:50:32;;;;;;;12.90;9.70;;;;;;;;;;5032623;28;20371;-72
2022/04/28 02:53:01;;;;;;;14.03;10.17;;;;;;;;;;5031464;28;20631;-72
2022/04/28 02:55:29;;;;;;;12.80;9.87;;;;;;;;;;5032399;28;20200;-72
2022/04/28 02:57:58;;;;;;;13.80;9.83;;;;;;;;;;5025763;28;20294;-72
2022/04/28 03:00:29;;;;;;;14.20;10.67;;;;;;;;;;5028041;28;20226;-72
2022/04/28 03:02:58;;;;;;;13.23;10.17;;;;;;;;;;5032398;28;20215;-72
2022/04/28 03:05:26;;;;;;;11.90;9.80;;;;;;;;;;5032464;28;20206;-73
2022/04/28 03:10:50;;;;;;;13.47;10.10;;;;;;;;;;5032328;28;20701;-71
2022/04/28 03:13:19;;;;;;;14.17;10.17;;;;;;;;;;5032442;28;20202;-71
2022/04/28 03:15:49;;;;;;;14.83;10.17;;;;;;;;;;5030017;28;20205;-71
2022/04/28 03:18:18;;;;;;;13.27;10.37;;;;;;;;;;5031204;28;20233;-72
2022/04/28 03:20:46;;;;;;;12.00;9.77;;;;;;;;;;5031399;28;20231;-71
2022/04/28 03:23:14;;;;;;;13.43;9.80;;;;;;;;;;5030217;28;20617;-72
2022/04/28 03:25:43;;;;;;;12.47;10.20;;;;;;;;;;5025335;28;20258;-72
2022/04/28 03:28:11;;;;;;;14.03;10.80;;;;;;;;;;5032223;28;20220;-71
2022/04/28 03:30:40;;;;;;;13.50;9.90;;;;;;;;;;5032713;28;20204;-72
2022/04/28 03:33:10;;;;;;;18.43;10.90;;;;;;;;;;5031845;28;20203;-71
2022/04/28 03:35:38;;;;;;;14.13;9.97;;;;;;;;;;5032576;28;20200;-72
2022/04/28 03:38:09;;;;;;;13.83;10.30;;;;;;;;;;5028069;28;20228;-72
2022/04/28 03:40:38;;;;;;;14.00;10.00;;;;;;;;;;5021496;28;20246;-72
2022/04/28 03:43:06;;;;;;;14.53;10.50;;;;;;;;;;5030741;28;20644;-72
2022/04/28 03:45:35;;;;;;;15.37;10.87;;;;;;;;;;5031758;28;20196;-71
2022/04/28 03:48:04;;;;;;;12.80;10.87;;;;;;;;;;5031718;28;20219;-72
2022/04/28 03:50:33;;;;;;;12.90;10.17;;;;;;;;;;5032474;28;20618;-72
2022/04/28 03:53:02;;;;;;;15.77;10.50;;;;;;;;;;5033085;28;20609;-71
2022/04/28 03:55:31;;;;;;;15.43;11.30;;;;;;;;;;5032614;28;20544;-71
2022/04/28 03:57:59;;;;;;;13.93;10.73;;;;;;;;;;5030453;28;20223;-72
2022/04/28 04:00:27;;;;;;;14.63;11.07;;;;;;;;;;5031755;28;20261;-72
2022/04/28 04:02:56;;;;;;;14.03;10.77;;;;;;;;;;5035660;28;20613;-72
2022/04/28 04:05:24;;;;;;;12.13;10.27;;;;;;;;;;5036060;28;20214;-71
2022/04/28 04:07:54;;;;;;;16.13;10.70;;;;;;;;;;5035197;28;20219;-71
2022/04/28 04:10:23;;;;;;;12.23;10.50;;;;;;;;;;5036404;28;20570;-73
2022/04/28 04:12:51;;;;;;;17.47;10.53;;;;;;;;;;5035750;28;20234;-71
2022/04/28 04:15:19;;;;;;;15.67;11.37;;;;;;;;;;5036377;28;20210;-71
2022/04/28 04:17:48;;;;;;;15.10;10.63;;;;;;;;;;5034240;28;20596;-72
2022/04/28 04:20:16;;;;;;;15.03;10.20;;;;;;;;;;5035360;28;20200;-71
2022/04/28 04:22:45;;;;;;;15.13;10.20;;;;;;;;;;5035969;28;20204;-71
2022/04/28 04:25:15;;;;;;;16.03;10.57;;;;;;;;;;5036023;28;20207;-72
2022/04/28 04:27:43;;;;;;;11.53;9.57;;;;;;;;;;5030521;28;20691;-71
2022/04/28 04:32:58;;;;;;;11.40;9.47;;;;;;;;;;5035429;28;20208;-72
2022/04/28 04:35:26;;;;;;;15.07;10.73;;;;;;;;;;5035679;28;20262;-72
2022/04/28 04:37:55;;;;;;;12.13;10.13;;;;;;;;;;5034486;28;20276;-72
2022/04/28 04:40:25;;;;;;;15.53;10.30;;;;;;;;;;5035690;28;20559;-71
2022/04/28 04:42:53;;;;;;;13.47;10.33;;;;;;;;;;5034161;28;20234;-71
2022/04/28 04:45:23;;;;;;;14.70;10.27;;;;;;;;;;5024328;28;20209;-72
2022/04/28 04:47:51;;;;;;;14.83;10.20;;;;;;;;;;5040875;28;20220;-71
2022/04/28 04:50:20;;;;;;;13.83;10.57;;;;;;;;;;5034633;28;20203;-71
2022/04/28 04:52:48;;;;;;;18.47;11.20;;;;;;;;;;5036023;28;20211;-72
2022/04/28 04:55:17;;;;;;;15.73;10.83;;;;;;;;;;5033569;28;20207;-72
2022/04/28 04:57:47;;;;;;;17.50;11.93;;;;;;;;;;5033335;28;20277;-73
2022/04/28 05:00:15;;;;;;;14.33;11.60;;;;;;;;;;5034602;28;20223;-72
2022/04/28 05:02:44;;;;;;;14.07;11.73;;;;;;;;;;5035853;28;20273;-72
2022/04/28 05:05:12;;;;;;;12.93;10.80;;;;;;;;;;5033866;28;20203;-72
2022/04/28 05:07:41;;;;;;;19.77;12.10;;;;;;;;;;5020728;28;20224;-72
2022/04/28 05:10:10;;;;;;;15.23;10.90;;;;;;;;;;5034404;28;20282;-71
2022/04/28 05:12:38;;;;;;;14.30;11.93;;;;;;;;;;5035596;28;20258;-71
2022/04/28 05:15:08;;;;;;;17.63;11.90;;;;;;;;;;5033753;28;20208;-72
2022/04/28 05:17:37;;;;;;;20.43;12.40;;;;;;;;;;5032992;28;20236;-71
2022/04/28 05:20:07;;;;;;;19.83;13.23;;;;;;;;;;5034211;28;20273;-71
2022/04/28 05:22:35;;;;;;;16.93;12.97;;;;;;;;;;5015696;28;20200;-72
2022/04/28 05:25:04;;;;;;;19.97;13.67;;;;;;;;;;5034637;28;20283;-71
2022/04/28 05:27:33;;;;;;;19.83;14.27;;;;;;;;;;5034551;28;20232;-72
2022/04/28 05:30:01;;;;;;;19.93;14.00;;;;;;;;;;5033900;28;20243;-72
2022/04/28 05:32:31;;;;;;;27.13;16.37;;;;;;;;;;5034039;28;20200;-72
2022/04/28 05:34:59;;;;;;;25.40;15.10;;;;;;;;;;5032729;28;20209;-72
2022/04/28 05:37:30;;;;;;;25.20;15.97;;;;;;;;;;5029159;28;20222;-72
2022/04/28 05:40:03;;;;;;;24.63;15.03;;;;;;;;;;5032401;28;20215;-72
2022/04/28 05:48:11;;;;;;;22.63;15.23;;;;;;;;;;5033554;28;20246;-72
2022/04/28 05:50:41;;;;;;;21.27;16.53;;;;;;;;;;5035060;28;20196;-72
2022/04/28 05:53:09;;;;;;;22.93;16.17;;;;;;;;;;5034322;28;20202;-73
2022/04/28 05:55:38;;;;;;;23.37;16.03;;;;;;;;;;5034687;28;20212;-71
2022/04/28 05:58:06;;;;;;;25.80;16.77;;;;;;;;;;5033976;28;20268;-73
2022/04/28 06:00:35;;;;;;;21.13;17.47;;;;;;;;;;5034338;28;20213;-72
2022/04/28 06:03:03;;;;;;;24.30;16.13;;;;;;;;;;5034526;28;20260;-73
2022/04/28 06:05:33;;;;;;;22.40;17.10;;;;;;;;;;5034375;28;20211;-73
2022/04/28 06:08:02;;;;;;;24.87;16.00;;;;;;;;;;5034824;28;20226;-72
2022/04/28 06:10:31;;;;;;;24.07;16.20;;;;;;;;;;5034404;28;20252;-73
2022/04/28 06:12:59;;;;;;;23.30;15.93;;;;;;;;;;5018875;28;20203;-72
2022/04/28 06:18:50;;;;;;;22.60;15.50;;;;;;;;;;5032841;28;20245;-73
2022/04/28 06:21:20;;;;;;;22.70;15.53;;;;;;;;;;5032900;28;20318;-73
2022/04/28 06:23:48;;;;;;;21.57;16.30;;;;;;;;;;5032145;28;20207;-73
2022/04/28 06:26:17;;;;;;;19.57;15.03;;;;;;;;;;5032118;28;20208;-74
2022/04/28 06:28:45;;;;;;;18.60;14.70;;;;;;;;;;5033665;28;20270;-73
2022/04/28 06:31:13;;;;;;;19.93;14.77;;;;;;;;;;5034099;28;20203;-72
2022/04/28 06:33:57;;;;;;;22.07;14.73;;;;;;;;;;5033894;28;20664;-74
2022/04/28 06:36:27;;;;;;;20.67;13.57;;;;;;;;;;5032623;28;20210;-72
2022/04/28 06:38:56;;;;;;;20.30;13.50;;;;;;;;;;5033504;28;20219;-73
2022/04/28 06:41:24;;;;;;;19.07;12.93;;;;;;;;;;5033977;28;20211;-72
2022/04/28 06:43:52;;;;;;;20.40;12.43;;;;;;;;;;5034051;28;20208;-72
2022/04/28 06:46:21;;;;;;;17.40;11.90;;;;;;;;;;5033087;28;20204;-72
2022/04/28 06:48:49;;;;;;;18.23;12.23;;;;;;;;;;5033564;28;20692;-73
2022/04/28 06:51:18;;;;;;;21.40;12.20;;;;;;;;;;5033280;28;20212;-73
2022/04/28 06:53:47;;;;;;;16.73;10.60;;;;;;;;;;5033531;28;20258;-73
2022/04/28 06:56:16;;;;;;;15.80;10.50;;;;;;;;;;5031857;28;20204;-72
2022/04/28 06:58:45;;;;;;;12.87;9.10;;;;;;;;;;5032975;28;20691;-73
2022/04/28 07:01:13;;;;;;;15.00;8.43;;;;;;;;;;5033513;28;20292;-73
2022/04/28 07:03:42;;;;;;;14.50;7.43;;;;;;;;;;5033305;28;20263;-72
2022/04/28 07:06:10;;;;;;;10.53;7.20;;;;;;;;;;5032863;28;20259;-72
2022/04/28 07:08:39;;;;;;;13.23;7.33;;;;;;;;;;5021807;28;20700;-72
2022/04/28 07:11:08;;;;;;;13.83;7.97;;;;;;;;;;5018532;28;20701;-72
2022/04/28 07:13:37;;;;;;;10.87;7.73;;;;;;;;;;5033354;28;20207;-72
2022/04/28 07:16:06;;;;;;;12.13;7.70;;;;;;;;;;5032856;28;20265;-72
2022/04/28 07:18:35;;;;;;;12.23;7.67;;;;;;;;;;5032914;28;20231;-72
2022/04/28 07:21:04;;;;;;;9.27;7.00;;;;;;;;;;5033337;28;20231;-72
2022/04/28 07:23:38;;;;;;;11.90;7.40;;;;;;;;;;5033417;28;20215;-72
2022/04/28 07:26:06;;;;;;;10.97;7.07;;;;;;;;;;5031082;28;20203;-73
2022/04/28 07:28:36;;;;;;;9.60;7.03;;;;;;;;;;5033023;28;20223;-71
2022/04/28 07:31:04;;;;;;;11.17;6.90;;;;;;;;;;5032957;28;20245;-72
2022/04/28 07:33:33;;;;;;;13.87;6.33;;;;;;;;;;5033004;28;20207;-72
2022/04/28 07:36:02;;;;;;;12.17;5.80;;;;;;;;;;5032252;28;20207;-73
2022/04/28 07:38:30;;;;;;;8.33;5.40;;;;;;;;;;5036860;28;20228;-72
2022/04/28 07:40:59;;;;;;;15.63;6.90;;;;;;;;;;5037035;28;20776;-73
2022/04/28 07:43:27;;;;;;;8.93;5.87;;;;;;;;;;5019281;28;20259;-72
2022/04/28 07:45:57;;;;;;;10.27;6.50;;;;;;;;;;5037451;28;20603;-71
2022/04/28 07:48:25;;;;;;;10.17;6.20;;;;;;;;;;5037504;28;20223;-73
2022/04/28 07:50:53;;;;;;;13.30;6.97;;;;;;;;;;5037089;28;20200;-72
2022/04/28 07:53:22;;;;;;;11.43;6.20;;;;;;;;;;5037043;28;20258;-71
2022/04/28 07:58:33;;;;;;;13.03;7.13;;;;;;;;;;5032891;28;20648;-72
2022/04/28 08:01:03;;;;;;;13.30;7.17;;;;;;;;;;5017027;28;20232;-73
2022/04/28 08:03:32;;;;;;;9.97;6.80;;;;;;;;;;5016956;28;20204;-71
2022/04/28 08:06:01;;;;;;;16.40;7.27;;;;;;;;;;5036816;28;20334;-72
2022/04/28 08:08:30;;;;;;;12.37;6.63;;;;;;;;;;5036584;28;20223;-74
2022/04/28 08:10:59;;;;;;;14.40;7.37;;;;;;;;;;5036577;28;20200;-72
2022/04/28 08:13:27;;;;;;;12.93;6.63;;;;;;;;;;5036520;28;20254;-72
2022/04/28 08:15:57;;;;;;;12.60;6.90;;;;;;;;;;5036002;28;20206;-74
2022/04/28 08:18:29;;;;;;;10.60;6.10;;;;;;;;;;5036227;28;20228;-73
2022/04/28 08:20:58;;;;;;;8.97;6.70;;;;;;;;;;5036740;28;20219;-73
2022/04/28 08:23:26;;;;;;;10.80;6.90;;;;;;;;;;5036347;28;20667;-73
2022/04/28 08:25:55;;;;;;;13.60;7.37;;;;;;;;;;5035915;28;20699;-73
2022/04/28 08:28:23;;;;;;;11.00;6.87;;;;;;;;;;5035995;28;20615;-72
2022/04/28 08:30:51;;;;;;;10.50;5.60;;;;;;;;;;5036207;28;20203;-73
2022/04/28 08:33:20;;;;;;;10.63;6.10;;;;;;;;;;5035428;28;20214;-73
2022/04/28 08:35:50;;;;;;;11.77;6.40;;;;;;;;;;5035288;28;20278;-72
2022/04/28 08:38:18;;;;;;;11.00;6.70;;;;;;;;;;5036162;28;20273;-72
2022/04/28 08:40:48;;;;;;;7.77;5.77;;;;;;;;;;5036085;28;20270;-73
2022/04/28 08:43:17;;;;;;;10.50;5.60;;;;;;;;;;5036174;28;20591;-72
2022/04/28 08:48:46;;;;;;;11.40;7.43;;;;;;;;;;5020152;28;20231;-72
2022/04/28 08:51:16;;;;;;;11.43;7.13;;;;;;;;;;5035804;28;20208;-72
2022/04/28 08:53:46;;;;;;;9.33;6.70;;;;;;;;;;5035809;28;20262;-73
2022/04/28 08:56:15;;;;;;;9.73;6.70;;;;;;;;;;5035078;28;20721;-74
2022/04/28 08:58:43;;;;;;;11.23;6.77;;;;;;;;;;5035556;28;20282;-71
2022/04/28 09:01:11;;;;;;;11.57;7.17;;;;;;;;;;5035968;28;20297;-72
2022/04/28 09:03:41;;;;;;;13.83;7.17;;;;;;;;;;5035676;28;20204;-73
2022/04/28 09:06:31;;;;;;;11.93;7.27;;;;;;;;;;5034878;28;20239;-73
2022/04/28 09:09:04;;;;;;;11.53;8.30;;;;;;;;;;5035678;28;20216;-73
2022/04/28 09:11:35;;;;;;;14.43;8.10;;;;;;;;;;5035456;28;20219;-74
2022/04/28 09:14:11;;;;;;;16.00;8.00;;;;;;;;;;5035941;28;20192;-73
2022/04/28 09:16:41;;;;;;;12.93;8.03;;;;;;;;;;5015412;28;20298;-73
2022/04/28 09:19:09;;;;;;;11.07;8.27;;;;;;;;;;5030055;28;20216;-73
2022/04/28 09:21:40;;;;;;;11.97;8.23;;;;;;;;;;5035483;28;20636;-72
2022/04/28 09:24:10;;;;;;;11.23;8.20;;;;;;;;;;5028521;28;20200;-73
2022/04/28 09:26:40;;;;;;;12.00;8.50;;;;;;;;;;5015353;28;20263;-72
2022/04/28 09:29:12;;;;;;;11.57;8.93;;;;;;;;;;5015288;28;20212;-74
2022/04/28 09:31:41;;;;;;;13.33;8.13;;;;;;;;;;5015506;28;20211;-72
2022/04/28 09:34:30;;;;;;;15.03;9.13;;;;;;;;;;5017468;28;22303;-73
2022/04/28 09:37:01;;;;;;;12.43;9.10;;;;;;;;;;5035011;28;20285;-73
2022/04/28 09:42:31;;;;;;;13.00;9.23;;;;;;;;;;5032727;28;20232;-72
2022/04/28 09:45:00;;;;;;;13.17;8.50;;;;;;;;;;5030146;28;20223;-72
2022/04/28 09:47:31;;;;;;;11.80;8.98;;;;;;;;;;5034867;28;20224;-73
2022/04/28 09:49:59;;;;;;;13.40;8.20;;;;;;;;;;5034787;28;20199;-73
2022/04/28 09:52:33;;;;;;;13.73;8.68;;;;;;;;;;5034954;28;20196;-72
2022/04/28 09:55:03;;;;;;;13.77;8.50;;;;;;;;;;5034493;28;20206;-72
2022/04/28 09:57:32;;;;;;;12.13;8.37;;;;;;;;;;5032238;28;20247;-73
2022/04/28 10:00:01;;;;;;;10.77;8.30;;;;;;;;;;5013944;28;20212;-73
2022/04/28 10:02:30;;;;;;;11.70;7.37;;;;;;;;;;5014777;28;20628;-73
2022/04/28 10:05:03;;;;;;;11.23;7.10;;;;;;;;;;5016874;28;20235;-72
2022/04/28 10:07:36;;;;;;;10.43;7.37;;;;;;;;;;5034497;28;20223;-72
2022/04/28 10:10:06;;;;;;;9.13;6.83;;;;;;;;;;5034553;28;20200;-73
2022/04/28 10:12:34;;;;;;;13.90;7.60;;;;;;;;;;5034143;28;20717;-73
2022/04/28 10:15:05;;;;;;;12.07;7.10;;;;;;;;;;5033468;28;20203;-72
2022/04/28 10:17:35;;;;;;;9.80;6.45;;;;;;;;;;5033924;28;20697;-71
2022/04/28 10:20:05;;;;;;;10.80;6.63;;;;;;;;;;5034182;28;20215;-73
2022/04/28 10:22:56;;;;;;;10.70;6.78;;;;;;;;;;5034505;28;20204;-74
2022/04/28 10:33:48;;;;;;;8.48;6.65;;;;;;;;;;5014448;28;20192;-73
2022/04/28 10:36:16;;;;;;;11.00;6.93;;;;;;;;;;5014539;28;20208;-73
2022/04/28 10:39:00;;;;;;;9.10;6.13;;;;;;;;;;5014114;28;20331;-73
2022/04/28 10:41:30;;;;;;;11.30;7.10;;;;;;;;;;5024615;28;20608;-73
2022/04/28 10:43:59;;;;;;;9.45;6.63;;;;;;;;;;5033570;28;20203;-74
2022/04/28 10:46:31;;;;;;;12.48;7.10;;;;;;;;;;5024176;28;20254;-72
2022/04/28 10:49:01;;;;;;;8.43;6.20;;;;;;;;;;5020763;28;20274;-74
2022/04/28 10:51:31;;;;;;;10.18;6.85;;;;;;;;;;5014212;28;20603;-73
2022/04/28 10:54:10;;;;;;;8.63;6.35;;;;;;;;;;5013822;28;20203;-72
2022/04/28 10:56:56;;;;;;;10.52;5.93;;;;;;;;;;5023551;28;20206;-72
2022/04/28 10:59:37;;;;;;;12.13;6.60;;;;;;;;;;5033574;28;20282;-73
2022/04/28 11:02:25;;;;;;;9.13;5.90;;;;;;;;;;5033859;28;20262;-73
2022/04/28 11:05:03;;;;;;;9.82;6.20;;;;;;;;;;5033166;28;20238;-73
2022/04/28 11:07:33;;;;;;;10.57;6.18;;;;;;;;;;5030891;28;20219;-72
2022/04/28 11:10:03;;;;;;;10.40;6.22;;;;;;;;;;5033464;28;20204;-73
2022/04/28 11:12:34;;;;;;;9.27;6.30;;;;;;;;;;5032508;28;20254;-73
2022/04/28 11:15:06;;;;;;;7.88;5.53;;;;;;;;;;5033188;28;20266;-72
2022/04/28 11:17:36;;;;;;;10.73;5.65;;;;;;;;;;5033090;28;20569;-73
2022/04/28 11:20:07;;;;;;;8.15;5.60;;;;;;;;;;5032081;28;20269;-73
2022/04/28 11:22:41;;;;;;;7.82;5.65;;;;;;;;;;5032477;28;20702;-73
2022/04/28 11:25:12;;;;;;;8.98;6.43;;;;;;;;;;5033102;28;20207;-74
2022/04/28 11:27:41;;;;;;;8.98;5.80;;;;;;;;;;5031835;28;20231;-73
2022/04/28 11:30:13;;;;;;;7.78;5.35;;;;;;;;;;5033331;28;20208;-73
2022/04/28 11:32:46;;;;;;;9.77;5.60;;;;;;;;;;5032673;28;20204;-73
2022/04/28 11:35:15;;;;;;;10.23;5.60;;;;;;;;;;5033287;28;20257;-72
2022/04/28 11:37:43;;;;;;;7.68;5.57;;;;;;;;;;5032422;28;20250;-73
2022/04/28 11:40:16;;;;;;;10.50;5.70;;;;;;;;;;5032066;28;20610;-73
2022/04/28 11:43:00;;;;;;;8.07;5.47;;;;;;;;;;5013212;28;20747;-73
2022/04/28 11:45:31;;;;;;;8.10;5.03;;;;;;;;;;5013182;28;20200;-72
2022/04/28 11:48:01;;;;;;;9.55;5.60;;;;;;;;;;5017446;28;20259;-73
2022/04/28 11:50:30;;;;;;;9.40;5.72;;;;;;;;;;5032491;28;20196;-73
2022/04/28 11:53:00;;;;;;;8.48;5.25;;;;;;;;;;5032945;28;20231;-73
2022/04/28 11:55:31;;;;;;;10.40;5.80;;;;;;;;;;5033246;28;20257;-73
2022/04/28 11:57:59;;;;;;;10.80;6.18;;;;;;;;;;5030064;28;20841;-73
2022/04/28 12:00:29;;;;;;;8.23;5.72;;;;;;;;;;5013236;28;20600;-73
2022/04/28 12:02:58;;;;;;;8.25;5.50;;;;;;;;;;5013054;28;20220;-72
2022/04/28 12:05:30;;;;;;;7.30;5.22;;;;;;;;;;5013149;28;20218;-73
2022/04/28 12:07:58;;;;;;;8.18;5.25;;;;;;;;;;5014596;28;20229;-72
2022/04/28 12:16:02;;;;;;;6.97;4.95;;;;;;;;;;5025609;28;20207;-73
2022/04/28 12:21:24;;;;;;;10.15;5.10;;;;;;;;;;5031761;28;20200;-73
2022/04/28 12:23:55;;;;;;;8.02;4.75;;;;;;;;;;5034797;28;20203;-72
2022/04/28 12:26:25;;;;;;;6.53;4.53;;;;;;;;;;5035571;28;20557;-73
2022/04/28 12:28:54;;;;;;;7.35;4.80;;;;;;;;;;5034983;28;20249;-72
2022/04/28 12:31:29;;;;;;;9.32;4.70;;;;;;;;;;5036169;28;20204;-74
2022/04/28 12:34:16;;;;;;;9.00;5.28;;;;;;;;;;5035022;28;20228;-73
2022/04/28 12:36:48;;;;;;;7.72;5.13;;;;;;;;;;5036289;28;20212;-72
2022/04/28 12:39:17;;;;;;;8.05;4.93;;;;;;;;;;5035229;28;20208;-73
2022/04/28 12:41:47;;;;;;;9.80;5.63;;;;;;;;;;5036084;28;20210;-72
2022/04/28 12:44:16;;;;;;;9.30;6.05;;;;;;;;;;5034840;28;20686;-73
2022/04/28 12:46:46;;;;;;;8.13;4.82;;;;;;;;;;5036018;28;20208;-73
2022/04/28 12:49:16;;;;;;;8.10;6.07;;;;;;;;;;5034234;28;20593;-72
2022/04/28 12:51:45;;;;;;;7.10;6.22;;;;;;;;;;5035254;28;20294;-72
2022/04/28 12:54:15;;;;;;;11.63;6.60;;;;;;;;;;5035601;28;20553;-72
2022/04/28 12:56:44;;;;;;;7.60;5.97;;;;;;;;;;5030283;28;20205;-73
2022/04/28 12:59:14;;;;;;;7.53;6.82;;;;;;;;;;5025566;28;20204;-73
2022/04/28 13:01:43;;;;;;;10.27;6.82;;;;;;;;;;5035143;28;20207;-72
2022/04/28 13:04:14;;;;;;;8.63;7.22;;;;;;;;;;5034765;28;20761;-72
2022/04/28 13:06:44;;;;;;;9.63;6.68;;;;;;;;;;5034422;28;20203;-72
2022/04/28 13:09:13;;;;;;;8.25;6.70;;;;;;;;;;5035322;28;20295;-72
2022/04/28 13:11:42;;;;;;;8.70;7.03;;;;;;;;;;5022792;28;20269;-73
2022/04/28 13:14:12;;;;;;;9.75;6.93;;;;;;;;;;5028534;28;20570;-72
2022/04/28 13:16:41;;;;;;;8.98;6.32;;;;;;;;;;5030087;28;20294;-73
2022/04/28 13:19:10;;;;;;;6.82;5.63;;;;;;;;;;5024566;28;20916;-73
2022/04/28 13:21:40;;;;;;;8.02;5.43;;;;;;;;;;5027767;28;20751;-74
2022/04/28 13:24:08;;;;;;;6.65;5.82;;;;;;;;;;5027128;28;20224;-73
2022/04/28 13:26:37;;;;;;;7.13;5.47;;;;;;;;;;5027386;28;20234;-73
2022/04/28 13:29:06;;;;;;;7.10;5.53;;;;;;;;;;5028268;28;20630;-73
2022/04/28 13:31:37;;;;;;;5.97;4.90;;;;;;;;;;5027898;28;20230;-74
2022/04/28 13:34:06;;;;;;;7.78;4.95;;;;;;;;;;5027655;28;20235;-73
2022/04/28 13:36:34;;;;;;;7.72;4.90;;;;;;;;;;5029414;28;20290;-73
2022/04/28 13:39:04;;;;;;;7.68;5.18;;;;;;;;;;5025742;28;20208;-73
2022/04/28 13:41:33;;;;;;;5.60;4.95;;;;;;;;;;5026955;28;20227;-72
2022/04/28 13:44:02;;;;;;;8.57;4.93;;;;;;;;;;5028190;28;20247;-73
2022/04/28 13:46:30;;;;;;;9.77;4.97;;;;;;;;;;5028679;28;20208;-73
2022/04/28 13:49:00;;;;;;;8.50;4.60;;;;;;;;;;5026891;28;20204;-73
2022/04/28 13:51:29;;;;;;;8.75;4.75;;;;;;;;;;5026083;28;20216;-73
2022/04/28 13:53:57;;;;;;;5.75;4.50;;;;;;;;;;5028362;28;20196;-73
2022/04/28 13:56:27;;;;;;;5.82;4.75;;;;;;;;;;5027325;28;20257;-74
2022/04/28 13:58:55;;;;;;;8.02;4.72;;;;;;;;;;5027147;28;20206;-73
2022/04/28 14:01:23;;;;;;;7.40;5.40;;;;;;;;;;5027302;28;20200;-74
2022/04/28 14:03:52;;;;;;;7.35;4.97;;;;;;;;;;5025982;28;20228;-74
2022/04/28 14:06:21;;;;;;;7.78;5.38;;;;;;;;;;5026546;28;20217;-74
2022/04/28 14:08:49;;;;;;;5.72;4.68;;;;;;;;;;5026327;28;20611;-73
2022/04/28 14:11:18;;;;;;;8.40;5.25;;;;;;;;;;5027505;28;20538;-73
2022/04/28 14:13:48;;;;;;;8.38;5.20;;;;;;;;;;5025717;28;20274;-73
2022/04/28 14:16:16;;;;;;;7.10;5.03;;;;;;;;;;5022587;28;20685;-72
2022/04/28 14:18:44;;;;;;;5.97;5.30;;;;;;;;;;5024659;28;20232;-73
2022/04/28 14:21:13;;;;;;;6.78;4.90;;;;;;;;;;5024173;28;21026;-73
2022/04/28 14:23:41;;;;;;;7.50;5.65;;;;;;;;;;5026477;28;20229;-73
2022/04/28 14:26:10;;;;;;;8.55;5.97;;;;;;;;;;5027458;28;20592;-73
2022/04/28 14:28:39;;;;;;;11.25;5.93;;;;;;;;;;5026892;28;20227;-74
2022/04/28 14:31:09;;;;;;;7.43;5.40;;;;;;;;;;5027031;28;20207;-73
2022/04/28 14:33:57;;;;;;;8.88;5.90;;;;;;;;;;5026507;28;20207;-73
2022/04/28 14:36:26;;;;;;;9.52;6.65;;;;;;;;;;5029084;28;20215;-73
2022/04/28 14:38:54;;;;;;;9.23;7.10;;;;;;;;;;5027984;28;20766;-74
2022/04/28 14:41:29;;;;;;;10.50;6.47;;;;;;;;;;5027684;28;20230;-73
2022/04/28 14:43:58;;;;;;;8.45;7.00;;;;;;;;;;5025219;28;20227;-73
2022/04/28 14:46:31;;;;;;;12.32;7.32;;;;;;;;;;5026970;28;20200;-72
2022/04/28 14:54:31;;;;;;;10.75;7.47;;;;;;;;;;5025949;28;20207;-72
2022/04/28 14:57:00;;;;;;;8.35;7.55;;;;;;;;;;5028380;28;20234;-74
2022/04/28 14:59:29;;;;;;;10.73;8.02;;;;;;;;;;5027058;28;20206;-73
2022/04/28 15:01:59;;;;;;;9.40;7.35;;;;;;;;;;5027641;28;20297;-72
2022/04/28 15:04:27;;;;;;;8.50;7.15;;;;;;;;;;5027029;28;20269;-73
2022/04/28 15:06:56;;;;;;;12.10;7.75;;;;;;;;;;5028004;28;20239;-73
2022/04/28 15:09:26;;;;;;;9.85;7.45;;;;;;;;;;5026589;28;20254;-73
2022/04/28 15:11:55;;;;;;;13.15;7.85;;;;;;;;;;5027626;28;20215;-73
2022/04/28 15:14:23;;;;;;;9.38;7.40;;;;;;;;;;5026930;28;20657;-73
2022/04/28 15:16:52;;;;;;;8.95;7.00;;;;;;;;;;5025924;28;20219;-72
2022/04/28 15:19:22;;;;;;;10.60;7.93;;;;;;;;;;5024306;28;20608;-74
2022/04/28 15:21:50;;;;;;;8.52;7.55;;;;;;;;;;5024393;28;20207;-72
2022/04/28 15:24:18;;;;;;;7.93;7.20;;;;;;;;;;5027922;28;20681;-73
2022/04/28 15:26:47;;;;;;;8.80;7.60;;;;;;;;;;5024199;28;20214;-73
2022/04/28 15:29:17;;;;;;;10.50;7.45;;;;;;;;;;5025694;28;20219;-73
2022/04/28 15:31:46;;;;;;;9.35;7.32;;;;;;;;;;5025048;28;20216;-73
2022/04/28 15:34:15;;;;;;;8.90;7.63;;;;;;;;;;5026507;28;20212;-72
2022/04/28 15:36:45;;;;;;;10.40;7.00;;;;;;;;;;5026965;28;20213;-72
2022/04/28 15:39:19;;;;;;;9.20;7.10;;;;;;;;;;5025331;28;20246;-74
2022/04/28 15:41:48;;;;;;;9.25;6.95;;;;;;;;;;5025196;28;20207;-73
2022/04/28 15:44:17;;;;;;;8.40;7.40;;;;;;;;;;5027501;28;20679;-72